Time;durP1;ratioP1;P1;durP2;ratioP2;P2;SDS_P1;SDS_P2;PMS_P1;PMS_P2;Temp;Humidity;BMP_temperature;BMP_pressure;BME280_temperature;BME280_humidity;BME280_pressure;Samples;Min_cycle;Max_cycle;Signal;HPM_P1;HPM_P2
2021/09/11 00:00:45;;;;;;;9.77;2.90;;;18.50;77.00;;;;;;5012244;28;20391;-85
2021/09/11 00:03:12;;;;;;;12.05;3.10;;;18.50;77.00;;;;;;5011994;28;20084;-84
2021/09/11 00:05:39;;;;;;;6.90;2.70;;;18.50;77.00;;;;;;5011907;28;20119;-85
2021/09/11 00:08:06;;;;;;;9.05;2.63;;;18.50;77.10;;;;;;5011797;28;20514;-85
2021/09/11 00:10:34;;;;;;;7.22;2.53;;;18.50;77.10;;;;;;5011744;28;20050;-85
2021/09/11 00:13:01;;;;;;;6.28;2.60;;;18.50;77.10;;;;;;5011923;28;20103;-85
2021/09/11 00:15:31;;;;;;;9.80;2.58;;;18.50;77.10;;;;;;5011895;28;20050;-85
2021/09/11 00:18:00;;;;;;;7.57;2.88;;;18.50;77.10;;;;;;5011692;28;20046;-85
2021/09/11 00:20:28;;;;;;;8.50;2.50;;;18.50;77.20;;;;;;5011636;28;20473;-84
2021/09/11 00:22:56;;;;;;;7.72;2.78;;;18.40;77.10;;;;;;5011554;28;20046;-85
2021/09/11 00:25:24;;;;;;;7.25;2.70;;;18.50;77.20;;;;;;5011646;28;20050;-85
2021/09/11 00:27:51;;;;;;;7.25;2.90;;;18.40;77.20;;;;;;5011888;28;20057;-85
2021/09/11 00:30:18;;;;;;;8.25;2.50;;;18.40;77.20;;;;;;5011100;28;20132;-85
2021/09/11 00:32:45;;;;;;;7.60;2.58;;;18.40;77.20;;;;;;5011498;28;20081;-85
2021/09/11 00:35:16;;;;;;;6.28;2.50;;;18.40;77.20;;;;;;5011158;28;20416;-84
2021/09/11 00:37:44;;;;;;;7.43;2.75;;;18.50;77.20;;;;;;5011536;28;20169;-84
2021/09/11 00:40:13;;;;;;;9.98;2.80;;;18.50;77.20;;;;;;5011326;28;20054;-85
2021/09/11 00:42:47;;;;;;;7.35;2.50;;;18.50;77.20;;;;;;5010961;28;20104;-85
2021/09/11 00:45:20;;;;;;;8.15;3.47;;;18.40;77.20;;;;;;5011175;28;20054;-85
2021/09/11 00:47:47;;;;;;;12.68;3.17;;;18.40;77.20;;;;;;5011048;28;20046;-85
2021/09/11 00:50:15;;;;;;;6.57;2.30;;;18.40;77.20;;;;;;5010998;28;20058;-84
2021/09/11 00:52:43;;;;;;;9.77;2.42;;;18.40;77.30;;;;;;5011188;28;20111;-85
2021/09/11 00:55:12;;;;;;;6.75;2.33;;;18.40;77.30;;;;;;5011106;28;20053;-85
2021/09/11 00:57:44;;;;;;;7.45;2.65;;;18.40;77.30;;;;;;5011264;28;20119;-84
2021/09/11 01:00:13;;;;;;;8.13;2.90;;;18.40;77.20;;;;;;5010893;28;20054;-85
2021/09/11 01:02:41;;;;;;;7.65;2.45;;;18.40;77.30;;;;;;5010986;28;20104;-85
2021/09/11 01:05:10;;;;;;;11.20;2.65;;;18.40;77.30;;;;;;5010906;28;20050;-85
2021/09/11 01:07:45;;;;;;;5.55;2.22;;;18.40;77.30;;;;;;5011079;28;20041;-85
2021/09/11 01:10:12;;;;;;;5.00;2.45;;;18.40;77.30;;;;;;5010791;28;20080;-84
2021/09/11 01:12:40;;;;;;;7.28;2.55;;;18.40;77.30;;;;;;5011078;28;20104;-85
2021/09/11 01:15:10;;;;;;;8.60;2.55;;;18.40;77.40;;;;;;5010762;28;20050;-83
2021/09/11 01:17:42;;;;;;;11.77;3.03;;;18.40;77.40;;;;;;5010646;28;20633;-84
2021/09/11 01:20:09;;;;;;;8.20;2.88;;;18.40;77.40;;;;;;5010649;28;20076;-86
2021/09/11 01:22:36;;;;;;;5.50;2.50;;;18.40;77.40;;;;;;5010726;28;20564;-85
2021/09/11 01:25:09;;;;;;;8.27;2.63;;;18.30;77.40;;;;;;5010779;28;20120;-84
2021/09/11 01:27:37;;;;;;;10.75;3.00;;;18.30;77.40;;;;;;5009421;28;20053;-84
2021/09/11 01:30:10;;;;;;;10.73;3.35;;;18.30;77.40;;;;;;5010412;28;20045;-85
2021/09/11 01:32:37;;;;;;;7.10;2.97;;;18.30;77.40;;;;;;5010554;28;20089;-85
2021/09/11 01:35:05;;;;;;;7.45;3.05;;;18.30;77.40;;;;;;5010371;28;20100;-84
2021/09/11 01:37:32;;;;;;;5.07;2.30;;;18.30;77.40;;;;;;5010580;28;20572;-84
2021/09/11 01:39:59;;;;;;;7.57;2.42;;;18.30;77.40;;;;;;5010592;28;20592;-84
2021/09/11 01:42:27;;;;;;;8.55;2.70;;;18.20;77.40;;;;;;5010537;28;20580;-85
2021/09/11 01:44:57;;;;;;;6.63;2.90;;;18.20;77.40;;;;;;5010364;28;20057;-85
2021/09/11 01:47:25;;;;;;;6.20;2.33;;;18.20;77.40;;;;;;5010344;28;20050;-84
2021/09/11 01:49:53;;;;;;;7.82;2.50;;;18.30;77.40;;;;;;5010388;28;20456;-84
2021/09/11 01:52:20;;;;;;;10.82;2.60;;;18.20;77.30;;;;;;4995479;28;20460;-83
2021/09/11 01:54:48;;;;;;;7.13;2.72;;;18.20;77.30;;;;;;5015037;28;20046;-83
2021/09/11 01:57:15;;;;;;;9.75;2.47;;;18.20;77.30;;;;;;5014054;28;20485;-83
2021/09/11 01:59:43;;;;;;;12.05;2.60;;;18.20;77.20;;;;;;5014177;28;20056;-83
2021/09/11 02:02:10;;;;;;;6.80;2.50;;;18.10;77.30;;;;;;5014268;28;20065;-84
2021/09/11 02:04:38;;;;;;;7.72;2.90;;;18.10;77.40;;;;;;5014176;28;20046;-84
2021/09/11 02:07:06;;;;;;;5.97;2.78;;;18.20;77.40;;;;;;5014272;28;20514;-83
2021/09/11 02:09:35;;;;;;;7.53;2.75;;;18.10;77.40;;;;;;5012677;28;20096;-83
2021/09/11 02:12:03;;;;;;;7.72;2.80;;;18.10;77.40;;;;;;5014023;28;20046;-83
2021/09/11 02:14:30;;;;;;;7.22;2.90;;;18.10;77.50;;;;;;5013974;28;20057;-83
2021/09/11 02:16:57;;;;;;;8.98;2.67;;;18.00;77.50;;;;;;5013979;28;20045;-83
2021/09/11 02:19:24;;;;;;;8.55;2.72;;;18.00;77.50;;;;;;5014018;28;20046;-84
2021/09/11 02:21:51;;;;;;;7.30;2.58;;;18.00;77.50;;;;;;5014643;28;20054;-83
2021/09/11 02:24:17;;;;;;;9.32;2.60;;;18.00;77.50;;;;;;5013473;28;20104;-83
2021/09/11 02:26:44;;;;;;;8.52;2.80;;;18.00;77.60;;;;;;5013678;28;20112;-84
2021/09/11 02:29:11;;;;;;;6.97;2.28;;;18.00;77.60;;;;;;5013681;28;20050;-84
2021/09/11 02:31:38;;;;;;;7.72;2.80;;;18.00;77.60;;;;;;5013751;28;20056;-84
2021/09/11 02:34:05;;;;;;;6.85;2.60;;;18.00;77.60;;;;;;5013892;28;20054;-83
2021/09/11 02:36:32;;;;;;;7.15;2.83;;;18.00;77.60;;;;;;5012068;28;20108;-84
2021/09/11 02:38:59;;;;;;;9.50;2.58;;;18.00;77.70;;;;;;5013240;28;20046;-83
2021/09/11 02:41:26;;;;;;;6.85;2.45;;;18.00;77.70;;;;;;5013383;28;20057;-83
2021/09/11 02:43:52;;;;;;;7.07;2.45;;;18.00;77.70;;;;;;5013578;28;20041;-84
2021/09/11 02:46:19;;;;;;;6.63;2.42;;;18.00;77.70;;;;;;4997753;28;20050;-83
2021/09/11 02:48:46;;;;;;;5.60;2.40;;;18.00;77.70;;;;;;5013949;28;20145;-84
2021/09/11 02:51:14;;;;;;;10.32;2.88;;;18.00;77.70;;;;;;5013245;28;20057;-85
2021/09/11 02:53:42;;;;;;;5.90;2.92;;;18.10;77.70;;;;;;5012943;28;20049;-85
2021/09/11 02:56:09;;;;;;;7.72;2.80;;;18.00;77.70;;;;;;5013212;28;20053;-83
2021/09/11 02:58:35;;;;;;;11.27;2.60;;;18.00;77.70;;;;;;5013222;28;20104;-84
2021/09/11 03:01:02;;;;;;;7.38;2.80;;;18.00;77.80;;;;;;5013346;28;20096;-84
2021/09/11 03:03:30;;;;;;;7.93;2.70;;;18.00;77.70;;;;;;5013391;28;20046;-83
2021/09/11 03:05:57;;;;;;;10.45;3.20;;;18.00;77.70;;;;;;5012327;28;20529;-83
2021/09/11 03:08:23;;;;;;;7.03;2.70;;;18.00;77.70;;;;;;5012685;28;20645;-84
2021/09/11 03:10:50;;;;;;;7.35;2.25;;;17.90;77.70;;;;;;5013263;28;20045;-83
2021/09/11 03:13:18;;;;;;;7.65;2.60;;;18.00;77.70;;;;;;5012987;28;20092;-84
2021/09/11 03:15:45;;;;;;;6.63;2.25;;;18.00;77.70;;;;;;5013436;28;20054;-83
2021/09/11 03:18:12;;;;;;;8.13;2.35;;;17.90;77.70;;;;;;5012838;28;20519;-82
2021/09/11 03:20:39;;;;;;;7.97;2.35;;;18.00;77.70;;;;;;5012833;28;20096;-83
2021/09/11 03:23:06;;;;;;;9.88;2.80;;;18.00;77.70;;;;;;5012315;28;20180;-84
2021/09/11 03:25:33;;;;;;;6.57;2.60;;;17.90;77.80;;;;;;5012825;28;20092;-84
2021/09/11 03:28:00;;;;;;;8.13;2.58;;;17.90;77.90;;;;;;5012778;28;20049;-85
2021/09/11 03:30:27;;;;;;;7.13;2.60;;;17.90;78.00;;;;;;5011651;28;20058;-84
2021/09/11 03:32:53;;;;;;;7.78;2.83;;;17.90;78.20;;;;;;5012585;28;20111;-84
2021/09/11 03:35:20;;;;;;;11.50;2.83;;;17.90;78.30;;;;;;5012287;28;20584;-84
2021/09/11 03:37:47;;;;;;;8.63;2.78;;;17.90;78.40;;;;;;5012207;28;20065;-85
2021/09/11 03:40:14;;;;;;;6.20;2.72;;;17.90;78.60;;;;;;5012528;28;20096;-85
2021/09/11 03:42:41;;;;;;;10.02;2.70;;;17.90;78.60;;;;;;5012962;28;20050;-84
2021/09/11 03:45:09;;;;;;;5.25;2.33;;;17.90;78.70;;;;;;5012235;28;20477;-84
2021/09/11 03:47:36;;;;;;;6.75;2.55;;;17.90;78.80;;;;;;5012184;28;20057;-85
2021/09/11 03:50:05;;;;;;;8.20;2.70;;;17.90;78.80;;;;;;5012063;28;20564;-84
2021/09/11 03:52:33;;;;;;;5.35;2.30;;;17.90;78.90;;;;;;5011869;28;20071;-84
2021/09/11 03:55:00;;;;;;;6.65;2.65;;;17.90;78.80;;;;;;5012240;28;20112;-84
2021/09/11 03:57:27;;;;;;;6.90;2.40;;;17.90;78.90;;;;;;5012562;28;20526;-84
2021/09/11 03:59:53;;;;;;;7.32;2.88;;;17.90;78.90;;;;;;5011904;28;20054;-84
2021/09/11 04:02:20;;;;;;;7.43;2.65;;;17.90;78.80;;;;;;5011922;28;20060;-84
2021/09/11 04:04:47;;;;;;;6.95;2.50;;;17.90;78.90;;;;;;5011956;28;20046;-84
2021/09/11 04:07:15;;;;;;;8.30;3.15;;;17.90;78.90;;;;;;5011844;28;20100;-84
2021/09/11 04:09:41;;;;;;;6.93;2.70;;;17.90;78.90;;;;;;5012340;28;20572;-84
2021/09/11 04:12:08;;;;;;;7.20;2.92;;;17.90;78.90;;;;;;5011698;28;20100;-85
2021/09/11 04:14:35;;;;;;;6.13;2.95;;;17.90;79.00;;;;;;5011746;28;20050;-84
2021/09/11 04:17:02;;;;;;;9.73;2.90;;;17.80;79.00;;;;;;5011665;28;20049;-84
2021/09/11 04:19:29;;;;;;;11.93;3.20;;;17.90;79.10;;;;;;5011813;28;20046;-84
2021/09/11 04:21:56;;;;;;;7.82;3.08;;;17.80;79.10;;;;;;5011587;28;20092;-84
2021/09/11 04:24:23;;;;;;;6.38;2.85;;;17.80;79.20;;;;;;5010909;28;20544;-84
2021/09/11 04:26:50;;;;;;;9.15;3.38;;;17.70;79.30;;;;;;5011308;28;20050;-84
2021/09/11 04:29:17;;;;;;;6.50;3.33;;;17.70;79.40;;;;;;5011461;28;20112;-85
2021/09/11 04:31:43;;;;;;;9.48;3.33;;;17.70;79.50;;;;;;5011457;28;20045;-84
2021/09/11 04:34:10;;;;;;;6.72;2.90;;;17.70;79.60;;;;;;5011426;28;20582;-84
2021/09/11 04:36:37;;;;;;;8.50;3.47;;;17.70;79.60;;;;;;5011732;28;20054;-86
2021/09/11 04:39:04;;;;;;;7.75;3.15;;;17.70;79.70;;;;;;5011356;28;20050;-85
2021/09/11 04:41:31;;;;;;;5.90;2.75;;;17.70;79.80;;;;;;5011182;28;20045;-85
2021/09/11 04:43:57;;;;;;;14.43;3.40;;;17.70;79.80;;;;;;5011360;28;20038;-85
2021/09/11 04:46:24;;;;;;;7.57;2.85;;;17.70;79.80;;;;;;5011280;28;20473;-86
2021/09/11 04:48:51;;;;;;;8.13;3.20;;;17.70;79.90;;;;;;5011508;28;20085;-86
2021/09/11 04:51:19;;;;;;;7.32;3.50;;;17.70;79.90;;;;;;5010623;28;20053;-86
2021/09/11 04:53:48;;;;;;;9.25;3.30;;;17.70;80.00;;;;;;5011000;28;20529;-86
2021/09/11 04:56:14;;;;;;;9.63;3.30;;;17.70;80.00;;;;;;5010941;28;20053;-86
2021/09/11 04:58:41;;;;;;;8.13;3.25;;;17.60;80.00;;;;;;5010980;28;20514;-86
2021/09/11 05:01:08;;;;;;;6.70;3.22;;;17.70;80.00;;;;;;5010979;28;20096;-86
2021/09/11 05:03:35;;;;;;;6.00;3.47;;;17.70;80.00;;;;;;5011601;28;20061;-86
2021/09/11 05:06:02;;;;;;;8.95;3.47;;;17.60;80.00;;;;;;5010761;28;20436;-85
2021/09/11 05:08:29;;;;;;;6.88;3.03;;;17.60;80.00;;;;;;5010884;28;20133;-86
2021/09/11 05:10:56;;;;;;;7.22;3.90;;;17.60;80.00;;;;;;5010830;28;20046;-87
2021/09/11 05:13:23;;;;;;;7.90;3.58;;;17.60;80.10;;;;;;5010800;28;20481;-86
2021/09/11 05:15:50;;;;;;;8.18;3.65;;;17.60;80.10;;;;;;5011379;28;20592;-87
2021/09/11 05:18:17;;;;;;;9.07;3.45;;;17.60;80.00;;;;;;5010427;28;20115;-86
2021/09/11 05:20:43;;;;;;;6.88;3.58;;;17.60;80.10;;;;;;5010643;28;20403;-86
2021/09/11 05:23:10;;;;;;;10.75;3.92;;;17.60;80.10;;;;;;5010612;28;20457;-86
2021/09/11 05:25:37;;;;;;;6.15;3.50;;;17.60;80.10;;;;;;5010668;28;20069;-86
2021/09/11 05:28:04;;;;;;;7.97;3.78;;;17.60;80.10;;;;;;5010254;28;20661;-87
2021/09/11 05:30:31;;;;;;;10.18;4.35;;;17.60;80.10;;;;;;5009072;28;20180;-86
2021/09/11 05:32:59;;;;;;;6.80;2.78;;;17.60;80.10;;;;;;5010169;28;20515;-86
2021/09/11 05:35:25;;;;;;;8.60;3.88;;;17.60;80.10;;;;;;5010424;28;20058;-87
2021/09/11 05:37:52;;;;;;;8.68;4.10;;;17.60;80.20;;;;;;5010652;28;20038;-87
2021/09/11 05:40:19;;;;;;;9.48;5.47;;;17.60;80.20;;;;;;4994963;28;20399;-87
2021/09/11 05:42:46;;;;;;;11.30;4.97;;;17.60;80.30;;;;;;5011035;28;20046;-87
2021/09/11 05:45:13;;;;;;;9.57;4.70;;;17.60;80.30;;;;;;5010402;28;20128;-87
2021/09/11 05:47:40;;;;;;;12.05;5.32;;;17.60;80.40;;;;;;5009946;28;20046;-86
2021/09/11 05:50:09;;;;;;;10.77;5.43;;;17.50;80.40;;;;;;5010360;28;20049;-87
2021/09/11 05:52:36;;;;;;;13.95;5.75;;;17.60;80.40;;;;;;5010511;28;20080;-88
2021/09/11 05:55:03;;;;;;;9.82;5.78;;;17.60;80.50;;;;;;5005790;28;20092;-87
2021/09/11 05:57:30;;;;;;;10.98;5.70;;;17.50;80.60;;;;;;5008510;28;20121;-87
2021/09/11 05:59:59;;;;;;;10.70;6.38;;;17.50;80.60;;;;;;5008137;28;20054;-89
2021/09/11 06:02:27;;;;;;;8.88;4.78;;;17.50;80.70;;;;;;5007807;28;20053;-90
2021/09/11 06:04:54;;;;;;;13.43;6.70;;;17.50;80.70;;;;;;5006588;28;20117;-88
2021/09/11 06:07:21;;;;;;;9.82;5.90;;;17.50;80.70;;;;;;5006415;28;20165;-90
2021/09/11 06:09:48;;;;;;;9.50;6.85;;;17.50;80.70;;;;;;5011213;28;20489;-89
2021/09/11 06:12:15;;;;;;;11.57;6.43;;;17.50;80.80;;;;;;5006751;28;20045;-91
2021/09/11 06:14:42;;;;;;;12.18;6.40;;;17.50;80.80;;;;;;5008389;28;20062;-90
2021/09/11 06:17:09;;;;;;;12.60;6.72;;;17.50;80.80;;;;;;5006486;28;20104;-91
2021/09/11 06:19:36;;;;;;;15.90;6.43;;;17.50;80.90;;;;;;5006631;28;20050;-87
2021/09/11 06:22:04;;;;;;;10.60;6.22;;;17.50;80.90;;;;;;5009058;28;20054;-91
2021/09/11 06:24:31;;;;;;;13.02;6.30;;;17.50;81.00;;;;;;5012042;28;20049;-89
2021/09/11 06:26:58;;;;;;;11.63;6.50;;;17.40;81.10;;;;;;5006876;28;20458;-89
2021/09/11 06:29:25;;;;;;;11.00;6.32;;;17.40;81.10;;;;;;5007396;28;20469;-89
2021/09/11 06:31:52;;;;;;;10.02;6.47;;;17.50;81.20;;;;;;5007203;28;20580;-89
2021/09/11 06:34:19;;;;;;;13.05;6.47;;;17.40;81.30;;;;;;5007790;28;20129;-86
2021/09/11 06:36:46;;;;;;;13.48;7.07;;;17.40;81.30;;;;;;5011586;28;20056;-87
2021/09/11 06:39:12;;;;;;;16.38;7.07;;;17.40;81.40;;;;;;5003533;28;20100;-85
2021/09/11 06:41:39;;;;;;;12.68;6.35;;;17.40;81.40;;;;;;5010756;28;20104;-86
2021/09/11 06:44:07;;;;;;;12.25;6.40;;;17.40;81.50;;;;;;5010241;28;20041;-88
2021/09/11 06:46:34;;;;;;;10.05;5.82;;;17.40;81.40;;;;;;5010738;28;20050;-88
2021/09/11 06:49:01;;;;;;;15.27;6.40;;;17.40;81.40;;;;;;5013176;28;20124;-88
2021/09/11 06:51:29;;;;;;;12.38;6.10;;;17.40;81.50;;;;;;5012172;28;20050;-88
2021/09/11 06:53:56;;;;;;;10.57;5.97;;;17.40;81.50;;;;;;5010963;28;20046;-87
2021/09/11 06:56:22;;;;;;;11.13;5.65;;;17.50;81.50;;;;;;5009968;28;20053;-87
2021/09/11 06:58:50;;;;;;;15.75;5.70;;;17.40;81.50;;;;;;5010593;28;20038;-88
2021/09/11 07:01:17;;;;;;;10.50;5.65;;;17.50;81.60;;;;;;5010741;28;20100;-89
2021/09/11 07:03:45;;;;;;;10.85;4.80;;;17.40;81.50;;;;;;5014129;28;20050;-87
2021/09/11 07:06:13;;;;;;;9.75;4.65;;;17.50;81.50;;;;;;5010353;28;20537;-88
2021/09/11 07:08:40;;;;;;;15.65;5.10;;;17.50;81.50;;;;;;5006413;28;20046;-87
2021/09/11 07:11:14;;;;;;;16.23;4.63;;;17.50;81.60;;;;;;5010271;28;20568;-90
2021/09/11 07:13:41;;;;;;;9.75;4.40;;;17.50;81.60;;;;;;5012255;28;20049;-87
2021/09/11 07:16:08;;;;;;;9.40;4.15;;;17.50;81.50;;;;;;5011904;28;20046;-87
2021/09/11 07:18:36;;;;;;;12.85;4.78;;;17.60;81.50;;;;;;5012704;28;20104;-87
2021/09/11 07:21:03;;;;;;;7.47;3.85;;;17.60;81.50;;;;;;5010128;28;20576;-88
2021/09/11 07:23:30;;;;;;;10.18;4.10;;;17.60;81.60;;;;;;5009977;28;20506;-87
2021/09/11 07:25:58;;;;;;;8.70;3.65;;;17.60;81.40;;;;;;5009793;28;20038;-87
2021/09/11 07:28:24;;;;;;;9.27;4.07;;;17.70;81.40;;;;;;5010234;28;20058;-87
2021/09/11 07:30:51;;;;;;;9.48;3.40;;;17.70;81.20;;;;;;5013374;28;20050;-85
2021/09/11 07:33:18;;;;;;;15.63;3.70;;;17.70;81.00;;;;;;5010598;28;20475;-89
2021/09/11 07:35:45;;;;;;;9.55;3.35;;;17.70;81.00;;;;;;5008805;28;20058;-88
2021/09/11 07:38:14;;;;;;;12.77;3.80;;;17.70;80.90;;;;;;5008578;28;20038;-88
2021/09/11 07:40:42;;;;;;;8.32;3.45;;;17.70;80.90;;;;;;5008803;28;20869;-86
2021/09/11 07:43:10;;;;;;;8.32;3.35;;;17.80;81.00;;;;;;5009975;28;20505;-86
2021/09/11 07:45:38;;;;;;;9.57;3.72;;;17.80;80.90;;;;;;5011439;28;20046;-88
2021/09/11 07:48:06;;;;;;;10.40;4.03;;;17.80;80.80;;;;;;5008564;28;20464;-86
2021/09/11 07:50:35;;;;;;;8.75;3.88;;;17.80;80.80;;;;;;5007961;28;20050;-87
2021/09/11 07:53:03;;;;;;;12.75;3.47;;;17.90;80.90;;;;;;5009974;28;20050;-86
2021/09/11 07:55:31;;;;;;;9.98;3.33;;;17.90;80.90;;;;;;5008355;28;20108;-86
2021/09/11 07:57:58;;;;;;;8.82;3.30;;;17.90;81.00;;;;;;5010358;28;20054;-86
2021/09/11 08:00:26;;;;;;;10.02;3.10;;;17.90;80.90;;;;;;5010175;28;20046;-86
2021/09/11 08:02:53;;;;;;;11.52;3.25;;;18.00;80.80;;;;;;4982872;28;20054;-86
2021/09/11 08:05:21;;;;;;;9.88;3.15;;;18.10;80.60;;;;;;5000720;28;20053;-87
2021/09/11 08:07:51;;;;;;;11.50;3.15;;;18.10;80.60;;;;;;5008510;28;20046;-86
2021/09/11 08:10:18;;;;;;;9.20;3.75;;;18.20;80.70;;;;;;5008900;28;20802;-88
2021/09/11 08:12:47;;;;;;;10.65;3.22;;;18.30;80.50;;;;;;5011776;28;20050;-86
2021/09/11 08:15:18;;;;;;;8.95;2.88;;;18.40;80.30;;;;;;5007974;28;20081;-87
2021/09/11 08:17:46;;;;;;;12.88;3.00;;;18.40;79.70;;;;;;5007661;28;20046;-87
2021/09/11 08:20:14;;;;;;;12.00;2.90;;;18.40;79.60;;;;;;5007739;28;20037;-87
2021/09/11 08:22:43;;;;;;;8.00;2.50;;;18.60;79.60;;;;;;5008276;28;20035;-87
2021/09/11 08:25:10;;;;;;;10.65;2.83;;;18.60;79.50;;;;;;5009439;28;20050;-86
2021/09/11 08:27:37;;;;;;;8.98;2.65;;;18.70;79.40;;;;;;5010293;28;20392;-86
2021/09/11 08:30:05;;;;;;;9.10;2.58;;;18.80;79.40;;;;;;5007686;28;20046;-86
2021/09/11 08:32:35;;;;;;;9.07;3.03;;;18.90;79.30;;;;;;5007612;28;20058;-86
2021/09/11 08:35:04;;;;;;;7.82;2.47;;;19.00;78.70;;;;;;5007439;28;20076;-87
2021/09/11 08:37:31;;;;;;;11.20;2.28;;;19.00;77.80;;;;;;4993198;28;20092;-87
2021/09/11 08:39:58;;;;;;;7.43;2.30;;;19.10;77.70;;;;;;5009910;28;20046;-87
2021/09/11 08:42:25;;;;;;;9.57;2.78;;;19.20;77.70;;;;;;5008963;28;20096;-90
2021/09/11 08:44:52;;;;;;;7.68;2.58;;;19.40;77.70;;;;;;5007282;28;20049;-87
2021/09/11 08:47:20;;;;;;;8.82;2.80;;;19.40;76.80;;;;;;5007381;28;20050;-87
2021/09/11 08:49:47;;;;;;;7.43;2.22;;;19.40;75.90;;;;;;5007764;28;20633;-88
2021/09/11 08:52:14;;;;;;;5.03;2.40;;;19.40;76.00;;;;;;5008487;28;20116;-88
2021/09/11 08:54:42;;;;;;;9.35;2.60;;;19.40;76.20;;;;;;5010710;28;20050;-83
2021/09/11 08:57:21;;;;;;;8.30;2.72;;;19.50;75.90;;;;;;5006777;28;20066;-86
2021/09/11 08:59:48;;;;;;;5.32;1.83;;;19.50;75.30;;;;;;5007043;28;20454;-86
2021/09/11 09:02:17;;;;;;;8.57;2.35;;;19.60;75.10;;;;;;5006858;28;20096;-87
2021/09/11 09:04:52;;;;;;;8.20;2.35;;;19.60;75.00;;;;;;5007222;28;20494;-87
2021/09/11 09:07:33;;;;;;;8.68;2.40;;;19.70;75.00;;;;;;5007557;28;20060;-87
2021/09/11 09:10:06;;;;;;;5.25;1.80;;;19.70;74.90;;;;;;5007243;28;20046;-88
2021/09/11 09:12:36;;;;;;;9.45;2.28;;;19.80;74.90;;;;;;5009353;28;20481;-87
2021/09/11 09:15:09;;;;;;;7.78;2.30;;;19.80;74.20;;;;;;5006835;28;20050;-85
2021/09/11 09:17:48;;;;;;;5.97;2.23;;;19.80;74.30;;;;;;5006874;28;20457;-86
2021/09/11 09:20:22;;;;;;;9.52;2.10;;;19.80;74.00;;;;;;5006974;28;20053;-85
2021/09/11 09:23:07;;;;;;;7.10;2.10;;;19.80;74.00;;;;;;5006972;28;20046;-86
2021/09/11 09:25:36;;;;;;;10.38;2.45;;;19.90;74.40;;;;;;4992871;28;20666;-85
2021/09/11 09:28:06;;;;;;;8.32;2.15;;;19.90;74.50;;;;;;5009389;28;20457;-85
2021/09/11 09:30:35;;;;;;;6.82;2.00;;;20.00;74.20;;;;;;5009151;28;20054;-86
2021/09/11 09:33:02;;;;;;;5.47;2.10;;;20.20;74.10;;;;;;5006603;28;20046;-86
2021/09/11 09:35:32;;;;;;;8.60;2.30;;;20.30;74.40;;;;;;5006536;28;20046;-85
2021/09/11 09:38:08;;;;;;;7.20;2.00;;;20.40;74.10;;;;;;5006665;28;20061;-86
2021/09/11 09:40:47;;;;;;;8.32;1.90;;;20.50;73.50;;;;;;5006812;28;20066;-87
2021/09/11 09:43:39;;;;;;;10.10;2.28;;;20.60;72.90;;;;;;5007851;28;20093;-87
2021/09/11 09:46:13;;;;;;;7.18;2.10;;;20.70;72.50;;;;;;5003417;28;20054;-85
2021/09/11 09:48:42;;;;;;;5.88;2.38;;;20.90;72.50;;;;;;5009992;28;20058;-86
2021/09/11 09:51:14;;;;;;;8.18;3.15;;;20.90;71.80;;;;;;5006852;28;20050;-88
2021/09/11 09:53:43;;;;;;;8.60;2.63;;;21.10;71.70;;;;;;5005976;28;20054;-86
2021/09/11 09:56:11;;;;;;;8.70;2.72;;;21.20;71.40;;;;;;5006822;28;20502;-86
2021/09/11 09:58:38;;;;;;;11.02;2.60;;;21.40;70.80;;;;;;5006623;28;20043;-86
2021/09/11 10:01:06;;;;;;;8.07;2.20;;;21.40;70.00;;;;;;5008893;28;20057;-85
2021/09/11 10:03:34;;;;;;;7.80;2.78;;;21.40;70.00;;;;;;5008856;28;20078;-85
2021/09/11 10:06:29;;;;;;;8.93;3.05;;;21.60;70.30;;;;;;5006402;28;20596;-87
2021/09/11 10:09:05;;;;;;;9.55;2.85;;;21.70;69.50;;;;;;5006332;28;20050;-87
2021/09/11 10:11:40;;;;;;;7.82;2.42;;;21.80;69.50;;;;;;5006104;28;20054;-85
2021/09/11 10:14:12;;;;;;;8.60;2.30;;;21.90;68.60;;;;;;5008154;28;20104;-85
2021/09/11 10:16:43;;;;;;;7.97;2.50;;;21.90;68.70;;;;;;5010311;28;20042;-85
2021/09/11 10:19:16;;;;;;;6.88;2.15;;;22.00;68.70;;;;;;5012217;28;20053;-85
2021/09/11 10:21:44;;;;;;;;;;;22.10;67.90;;;;;;5014281;28;20061;-85
2021/09/11 10:24:14;;;;;;;8.10;2.33;;;22.30;68.20;;;;;;5009629;28;19976;-86
2021/09/11 10:26:45;;;;;;;11.70;2.40;;;22.40;68.20;;;;;;5010073;28;20497;-84
2021/09/11 10:29:30;;;;;;;9.90;2.00;;;22.50;68.00;;;;;;5010183;28;20034;-84
2021/09/11 10:32:00;;;;;;;7.18;2.17;;;22.60;66.80;;;;;;5009841;28;20073;-84
2021/09/11 10:35:04;;;;;;;6.30;2.00;;;22.70;66.40;;;;;;5009868;28;20077;-85
2021/09/11 10:37:37;;;;;;;8.32;2.22;;;22.80;65.70;;;;;;4970850;28;20054;-84
2021/09/11 10:40:13;;;;;;;6.45;1.83;;;22.80;65.00;;;;;;4971326;28;20050;-85
2021/09/11 10:43:03;;;;;;;10.25;2.63;;;22.80;65.30;;;;;;4971887;28;20054;-84
2021/09/11 10:45:53;;;;;;;8.10;2.33;;;22.90;65.80;;;;;;4972037;28;20058;-85
2021/09/11 10:48:44;;;;;;;12.95;3.00;;;23.00;66.00;;;;;;4971357;28;20089;-85
2021/09/11 10:51:18;;;;;;;8.30;2.00;;;23.10;65.40;;;;;;4970877;28;20051;-84
2021/09/11 10:54:22;;;;;;;5.65;2.08;;;23.30;65.50;;;;;;4970458;28;20055;-84
2021/09/11 10:56:50;;;;;;;5.77;1.90;;;23.40;64.60;;;;;;4958923;28;20062;-85
2021/09/11 11:02:03;;;;;;;5.20;1.88;;;23.60;64.30;;;;;;4970863;28;20637;-84
2021/09/11 11:04:38;;;;;;;8.57;1.75;;;23.70;63.80;;;;;;4970785;28;20046;-85
2021/09/11 11:07:08;;;;;;;6.90;1.98;;;23.80;63.20;;;;;;4970509;28;20110;-83
2021/09/11 11:09:44;;;;;;;5.25;1.80;;;23.90;63.30;;;;;;4970288;28;20129;-83
2021/09/11 11:12:13;;;;;;;7.75;1.70;;;23.90;62.70;;;;;;4974925;28;20426;-84
2021/09/11 11:14:45;;;;;;;6.18;2.25;;;23.90;62.40;;;;;;5009110;28;20050;-85
2021/09/11 11:17:14;;;;;;;7.38;2.05;;;24.00;62.20;;;;;;5009057;28;20096;-84
2021/09/11 11:19:43;;;;;;;9.25;2.10;;;24.10;62.40;;;;;;5009204;28;20046;-85
2021/09/11 11:22:14;;;;;;;6.53;2.17;;;24.20;62.50;;;;;;5010246;28;20050;-85
2021/09/11 11:24:44;;;;;;;14.63;2.00;;;24.30;62.40;;;;;;5012059;28;20576;-84
2021/09/11 11:27:23;;;;;;;5.70;2.05;;;24.40;62.20;;;;;;5008710;28;20057;-84
2021/09/11 11:29:52;;;;;;;5.65;1.95;;;24.50;61.20;;;;;;5008889;28;20061;-84
2021/09/11 11:32:22;;;;;;;5.22;1.92;;;24.60;60.80;;;;;;4991307;28;20629;-84
2021/09/11 11:34:52;;;;;;;5.28;1.83;;;24.70;60.30;;;;;;5010431;28;20050;-82
2021/09/11 11:37:19;;;;;;;5.35;1.90;;;24.80;60.00;;;;;;5009313;28;20073;-84
2021/09/11 11:39:46;;;;;;;6.85;2.15;;;24.80;60.30;;;;;;5012752;28;20568;-84
2021/09/11 11:42:16;;;;;;;6.55;2.08;;;24.90;60.20;;;;;;5008426;28;20112;-84
2021/09/11 11:44:45;;;;;;;9.23;1.92;;;24.90;59.60;;;;;;5008473;28;20052;-84
2021/09/11 11:47:31;;;;;;;9.27;2.30;;;25.00;59.90;;;;;;5008846;28;20050;-84
2021/09/11 11:49:58;;;;;;;9.30;1.90;;;24.90;59.50;;;;;;5008086;28;20499;-84
2021/09/11 11:52:26;;;;;;;7.18;2.03;;;25.00;59.20;;;;;;5008401;28;20054;-83
2021/09/11 11:54:53;;;;;;;7.78;1.90;;;25.10;59.40;;;;;;5011799;28;20469;-83
2021/09/11 11:57:22;;;;;;;8.80;2.17;;;25.00;59.50;;;;;;5008523;28;20120;-85
2021/09/11 12:00:03;;;;;;;6.00;2.17;;;24.80;59.40;;;;;;5008484;28;20049;-85
2021/09/11 12:02:31;;;;;;;7.25;2.17;;;24.80;60.00;;;;;;5008214;28;20691;-84
2021/09/11 12:05:14;;;;;;;7.63;1.90;;;24.70;60.30;;;;;;5007808;28;20058;-85
2021/09/11 12:07:42;;;;;;;10.40;2.22;;;24.50;60.10;;;;;;5008223;28;20053;-83
2021/09/11 12:10:16;;;;;;;7.95;2.20;;;24.30;60.40;;;;;;5010019;28;20046;-84
2021/09/11 12:12:52;;;;;;;5.47;2.05;;;24.20;60.80;;;;;;5011617;28;20051;-84
2021/09/11 12:15:25;;;;;;;7.35;2.13;;;24.00;61.20;;;;;;5004301;28;20507;-86
2021/09/11 12:18:11;;;;;;;;;;;23.90;61.40;;;;;;5005407;28;20052;-85
2021/09/11 12:20:49;;;;;;;7.22;2.03;;;23.80;61.30;;;;;;5007646;28;19921;-84
2021/09/11 12:23:28;;;;;;;8.07;2.10;;;23.60;61.10;;;;;;5007790;28;20058;-86
2021/09/11 12:26:04;;;;;;;7.50;2.15;;;23.50;61.30;;;;;;5009465;28;20103;-86
2021/09/11 12:28:40;;;;;;;13.07;2.08;;;23.40;61.80;;;;;;5007751;28;20085;-86
2021/09/11 12:31:18;;;;;;;8.70;1.92;;;23.30;62.20;;;;;;5009970;28;20049;-85
2021/09/11 12:33:56;;;;;;;8.25;1.95;;;23.20;62.80;;;;;;5011301;28;20049;-86
2021/09/11 12:36:40;;;;;;;8.27;2.25;;;23.20;63.20;;;;;;5008808;28;20050;-86
2021/09/11 12:39:25;;;;;;;8.10;2.33;;;23.10;63.60;;;;;;5007458;28;20498;-85
2021/09/11 12:41:54;;;;;;;9.32;2.17;;;23.10;63.80;;;;;;5007434;28;20391;-86
2021/09/11 12:44:24;;;;;;;8.00;1.95;;;23.10;64.00;;;;;;5007430;28;20050;-85
2021/09/11 12:46:54;;;;;;;10.85;2.00;;;23.20;64.40;;;;;;5007500;28;20050;-85
2021/09/11 12:49:26;;;;;;;8.35;1.98;;;23.10;64.10;;;;;;4991914;28;20053;-85
2021/09/11 12:51:55;;;;;;;10.70;2.28;;;23.00;63.00;;;;;;5007405;28;20050;-85
2021/09/11 12:54:23;;;;;;;8.77;2.50;;;22.90;62.80;;;;;;5008728;28;20625;-85
2021/09/11 12:56:51;;;;;;;6.50;2.00;;;22.80;63.00;;;;;;5007542;28;20100;-86
2021/09/11 12:59:18;;;;;;;7.35;2.20;;;22.80;63.50;;;;;;5007539;28;20096;-86